createdAt,value
2018-09-06T09:28:08.165Z,28.00
2018-09-06T09:28:41.554Z,28.00
2018-09-06T09:29:14.895Z,28.00
2018-09-06T09:29:47.537Z,28.00
2018-09-06T09:30:22.931Z,28.00
2018-09-06T09:30:55.697Z,28.00
2018-09-06T09:31:31.160Z,28.00
2018-09-06T09:32:04.544Z,28.00
2018-09-06T09:32:37.169Z,28.00
2018-09-06T09:33:09.796Z,28.10
2018-09-06T09:33:42.376Z,28.00
2018-09-06T09:34:15.045Z,28.00
2018-09-06T09:34:47.670Z,27.90
2018-09-06T09:35:21.032Z,27.90
2018-09-06T09:35:54.420Z,27.90
2018-09-06T09:36:26.967Z,27.90
2018-09-06T09:36:59.560Z,28.00
2018-09-06T09:37:32.660Z,27.90
2018-09-06T09:38:06.341Z,27.90
2018-09-06T09:39:11.205Z,27.90
2018-09-06T09:39:43.778Z,27.90
2018-09-06T09:40:21.430Z,27.90
2018-09-06T09:40:53.997Z,27.80
2018-09-06T09:41:27.240Z,27.90
2018-09-06T09:42:00.794Z,27.80
2018-09-06T09:42:33.417Z,27.90
2018-09-06T09:43:08.678Z,27.90
2018-09-06T09:43:42.702Z,27.90
2018-09-06T09:44:18.146Z,27.90
2018-09-06T09:44:51.497Z,27.90
2018-09-06T09:45:25.829Z,27.90
2018-09-06T09:48:04.960Z,27.80
2018-09-06T09:48:37.594Z,27.80
2018-09-06T09:49:18.041Z,27.90
2018-09-06T09:49:55.041Z,27.80
2018-09-06T09:51:03.591Z,27.80
2018-09-06T09:51:36.985Z,27.80
2018-09-06T09:52:10.568Z,27.80
2018-09-06T09:52:50.831Z,27.80
2018-09-06T09:53:39.252Z,27.80
2018-09-06T09:54:12.046Z,27.80
2018-09-06T09:54:47.514Z,27.80
2018-09-06T09:55:32.379Z,27.80
2018-09-06T09:56:04.947Z,27.80
2018-09-06T09:56:38.890Z,27.80
2018-09-06T09:58:18.930Z,27.80
2018-09-06T09:58:56.400Z,27.80
2018-09-06T09:59:46.024Z,27.80
2018-09-06T10:00:20.482Z,27.80
2018-09-06T10:03:12.827Z,27.80
2018-09-06T10:04:08.926Z,27.90
2018-09-06T10:05:31.376Z,27.90
2018-09-06T10:06:05.555Z,28.00
2018-09-06T10:06:39.668Z,28.10
2018-09-06T10:08:24.552Z,28.10
2018-09-06T10:08:58.604Z,28.10
2018-09-06T10:09:33.565Z,28.20
2018-09-06T10:10:06.618Z,28.20
2018-09-06T10:10:51.163Z,28.20
2018-09-06T10:11:24.308Z,28.20
2018-09-06T10:11:57.402Z,28.30
2018-09-06T10:12:30.124Z,28.40
2018-09-06T10:13:08.098Z,28.40
2018-09-06T10:13:41.854Z,28.50
2018-09-06T10:14:15.393Z,28.50
2018-09-06T10:15:04.341Z,28.60
2018-09-06T10:15:40.905Z,28.60
2018-09-06T10:16:13.531Z,28.60
2018-09-06T10:16:46.914Z,28.60
2018-09-06T10:17:21.848Z,28.70
2018-09-06T10:17:54.458Z,28.70
2018-09-06T10:18:27.044Z,28.80
2018-09-06T10:18:59.594Z,28.80
2018-09-06T10:19:32.165Z,28.80
2018-09-06T10:20:12.573Z,28.90
2018-09-06T10:20:45.118Z,28.80
2018-09-06T10:21:24.497Z,28.80
2018-09-06T10:21:57.875Z,28.90
2018-09-06T10:22:30.478Z,28.90
2018-09-06T10:23:03.041Z,28.90
2018-09-06T10:23:35.605Z,29.00
2018-09-06T10:24:08.216Z,29.00
2018-09-06T10:24:40.764Z,29.00
2018-09-06T10:25:13.349Z,29.10
2018-09-06T10:25:45.895Z,29.00
2018-09-06T10:26:18.425Z,29.10
2018-09-06T10:26:51.724Z,29.20
2018-09-06T10:27:24.252Z,29.10
2018-09-06T10:27:59.523Z,29.20
2018-09-06T10:28:32.024Z,29.20
2018-09-06T10:29:05.316Z,29.20
2018-09-06T10:29:39.041Z,29.20
2018-09-06T10:30:12.091Z,29.20
2018-09-06T10:30:45.912Z,29.30
2018-09-06T10:31:18.996Z,29.30
2018-09-06T10:31:52.095Z,29.30
2018-09-06T10:32:25.164Z,29.40
2018-09-06T10:32:58.224Z,29.30
2018-09-06T10:33:32.079Z,29.40
2018-09-06T10:34:05.915Z,29.40
2018-09-06T10:34:39.733Z,29.40
2018-09-06T10:35:12.799Z,29.40
2018-09-06T10:35:45.844Z,29.40
2018-09-06T10:36:18.916Z,29.40
2018-09-06T10:36:51.979Z,29.40
2018-09-06T10:37:26.257Z,29.30
2018-09-06T10:37:59.316Z,29.30
2018-09-06T10:38:32.384Z,29.30
2018-09-06T10:39:05.446Z,29.30
2018-09-06T10:39:39.439Z,29.10
2018-09-06T10:40:13.260Z,29.10
2018-09-06T10:40:46.334Z,29.10
2018-09-06T10:41:19.396Z,29.20
2018-09-06T10:41:53.228Z,29.20
2018-09-06T10:42:26.314Z,29.20
2018-09-06T10:43:04.064Z,29.10
2018-09-06T10:43:37.116Z,29.10
2018-09-06T10:44:10.187Z,29.10
2018-09-06T10:44:43.290Z,29.10
2018-09-06T10:45:16.375Z,29.00
2018-09-06T10:46:53.021Z,29.00
2018-09-06T10:47:26.084Z,29.00
2018-09-06T10:47:59.204Z,29.00
2018-09-06T10:48:32.212Z,29.00
2018-09-06T10:49:05.261Z,28.90
2018-09-06T10:49:39.108Z,28.90
2018-09-06T10:50:12.158Z,28.90
2018-09-06T10:50:45.212Z,28.90
2018-09-06T10:51:18.286Z,28.80
2018-09-06T10:51:51.356Z,28.90
2018-09-06T10:52:25.199Z,28.80
2018-09-06T10:52:58.257Z,28.80
2018-09-06T10:53:31.333Z,28.80
2018-09-06T10:54:04.424Z,28.80
2018-09-06T10:54:37.481Z,28.80
2018-09-06T10:55:10.532Z,28.80
2018-09-06T10:55:44.369Z,28.80
2018-09-06T10:56:17.433Z,28.80
2018-09-06T10:56:50.521Z,28.80
2018-09-06T10:57:23.605Z,28.80
2018-09-06T10:57:56.669Z,28.80
2018-09-06T10:58:29.729Z,28.70
2018-09-06T10:59:02.792Z,28.70
2018-09-06T10:59:35.849Z,28.70
2018-09-06T11:00:09.692Z,28.70
2018-09-06T11:00:42.779Z,28.70
2018-09-06T11:01:15.841Z,28.70
2018-09-06T11:01:48.937Z,28.80
2018-09-06T11:02:22.005Z,28.80
2018-09-06T11:02:55.065Z,28.80
2018-09-06T11:03:28.133Z,28.80
2018-09-06T11:04:01.217Z,28.80
2018-09-06T11:04:34.301Z,28.80
2018-09-06T11:05:07.416Z,28.80
2018-09-06T11:05:40.464Z,28.80
2018-09-06T11:06:13.545Z,28.80
2018-09-06T11:06:46.625Z,28.80
2018-09-06T11:07:19.861Z,28.80
2018-09-06T11:07:52.990Z,28.80
2018-09-06T11:08:26.078Z,28.70
2018-09-06T11:08:59.076Z,28.70
2018-09-06T11:09:32.149Z,28.80
2018-09-06T11:10:05.217Z,28.80
2018-09-06T11:10:38.284Z,28.80
2018-09-06T11:11:11.356Z,28.70
2018-09-06T11:11:45.203Z,28.70
2018-09-06T11:12:18.305Z,28.70
2018-09-06T11:12:51.402Z,28.70
2018-09-06T11:13:25.231Z,28.80
2018-09-06T11:13:58.280Z,28.70
2018-09-06T11:14:31.335Z,28.70
2018-09-06T11:15:10.722Z,28.60
2018-09-06T11:15:43.708Z,28.60
2018-09-06T11:16:16.808Z,28.60
2018-09-06T11:16:50.688Z,28.60
2018-09-06T11:17:23.792Z,28.50
2018-09-06T11:17:58.533Z,28.60
2018-09-06T11:18:31.568Z,28.60
2018-09-06T11:19:14.790Z,28.50
2018-09-06T11:19:51.269Z,28.50
2018-09-06T11:20:24.361Z,28.60
2018-09-06T11:20:59.410Z,28.60
2018-09-06T11:21:33.096Z,28.50
2018-09-06T11:22:38.511Z,28.60
2018-09-06T11:23:12.040Z,28.60
2018-09-06T11:23:46.453Z,28.60
2018-09-06T11:24:20.292Z,28.70
2018-09-06T11:24:53.376Z,28.70
2018-09-06T11:25:27.228Z,28.80
2018-09-06T11:26:01.062Z,28.70
2018-09-06T11:26:34.144Z,28.70
2018-09-06T11:27:10.659Z,28.80
2018-09-06T11:27:43.757Z,28.70
2018-09-06T11:28:17.572Z,28.80
2018-09-06T11:28:50.638Z,28.70
2018-09-06T11:29:23.722Z,28.80
2018-09-06T11:29:56.764Z,28.90
2018-09-06T11:30:30.605Z,29.00
2018-09-06T11:31:04.034Z,29.00
2018-09-06T11:31:37.096Z,29.00
2018-09-06T11:32:10.163Z,29.00
2018-09-06T11:32:43.241Z,29.00
2018-09-06T11:33:17.130Z,28.90
2018-09-06T11:33:51.845Z,29.00
2018-09-06T11:34:25.672Z,29.10
2018-09-06T11:34:58.761Z,29.10
2018-09-06T11:35:31.824Z,29.20
2018-09-06T11:36:04.889Z,29.20
2018-09-06T11:36:37.958Z,29.30
2018-09-06T11:37:11.035Z,29.30
2018-09-06T11:37:44.107Z,29.30
2018-09-06T11:38:17.160Z,29.40
2018-09-06T11:38:50.228Z,29.40
2018-09-06T11:39:23.277Z,29.50
2018-09-06T11:39:56.381Z,29.60
2018-09-06T11:40:29.443Z,29.60
2018-09-06T11:41:02.632Z,29.60
2018-09-06T11:41:35.709Z,29.60
2018-09-06T11:42:08.760Z,29.70
2018-09-06T11:42:41.845Z,29.80
2018-09-06T11:43:14.908Z,29.80
2018-09-06T11:43:47.973Z,29.80
2018-09-06T11:44:21.032Z,29.90
2018-09-06T11:44:54.076Z,30.00
2018-09-06T11:45:28.422Z,30.10
2018-09-06T11:46:01.505Z,30.00
2018-09-06T11:46:34.571Z,30.10
2018-09-06T11:47:07.684Z,30.20
2018-09-06T11:47:40.711Z,30.30
2018-09-06T11:48:13.739Z,30.20
2018-09-06T11:48:46.793Z,30.20
2018-09-06T11:49:19.862Z,30.20
2018-09-06T11:49:52.929Z,30.30
2018-09-06T11:50:26.022Z,30.10
2018-09-06T11:50:59.072Z,30.20
2018-09-06T11:51:32.128Z,30.20
2018-09-06T11:52:05.196Z,30.20
2018-09-06T11:52:38.476Z,30.10
2018-09-06T11:53:12.313Z,30.20
2018-09-06T11:53:45.392Z,30.20
2018-09-06T11:54:18.461Z,30.20
2018-09-06T11:54:51.537Z,30.30
2018-09-06T11:55:24.604Z,30.30
2018-09-06T11:55:57.680Z,30.30
2018-09-06T11:56:30.749Z,30.30
2018-09-06T11:57:03.832Z,30.30
2018-09-06T11:57:37.320Z,30.30
2018-09-06T11:58:10.392Z,30.30
2018-09-06T11:58:43.471Z,30.40
2018-09-06T11:59:16.512Z,30.40
2018-09-06T11:59:49.610Z,30.40
2018-09-06T12:00:22.666Z,30.40
2018-09-06T12:00:55.725Z,30.50
2018-09-06T12:01:29.560Z,30.60
2018-09-06T12:02:02.641Z,30.60
2018-09-06T12:02:35.684Z,30.60
2018-09-06T12:03:08.761Z,30.60
2018-09-06T12:03:41.820Z,30.60
2018-09-06T12:04:14.882Z,30.70
2018-09-06T12:04:48.712Z,30.80
2018-09-06T12:05:22.524Z,30.80
2018-09-06T12:05:55.584Z,30.80
2018-09-06T12:06:28.644Z,30.80
2018-09-06T12:07:01.717Z,30.80
2018-09-06T12:07:34.776Z,30.80
2018-09-06T12:08:07.852Z,30.80
2018-09-06T12:08:41.693Z,30.80
2018-09-06T12:09:14.758Z,30.80
2018-09-06T12:09:47.811Z,30.90
2018-09-06T12:10:20.870Z,30.80
2018-09-06T12:10:53.924Z,30.80
2018-09-06T12:11:26.984Z,30.70
2018-09-06T12:12:00.084Z,30.60
2018-09-06T12:12:33.129Z,30.50
2018-09-06T12:13:06.215Z,30.40
2018-09-06T12:13:39.334Z,30.40
2018-09-06T12:14:12.348Z,30.40
2018-09-06T12:14:45.421Z,30.50
2018-09-06T12:15:18.517Z,30.50
2018-09-06T12:15:51.589Z,30.50
2018-09-06T12:16:24.652Z,30.50
2018-09-06T12:16:57.735Z,30.60
2018-09-06T12:17:30.797Z,30.70
2018-09-06T12:18:03.870Z,30.70
2018-09-06T12:18:36.937Z,30.70
2018-09-06T12:19:10.216Z,30.70
2018-09-06T12:19:43.278Z,30.70
2018-09-06T12:20:16.348Z,30.80
2018-09-06T12:20:49.397Z,30.80
2018-09-06T12:21:22.473Z,30.80
2018-09-06T12:21:55.503Z,30.80
2018-09-06T12:22:28.560Z,30.80
2018-09-06T12:23:01.645Z,30.90
2018-09-06T12:23:35.701Z,30.90
2018-09-06T12:24:08.742Z,30.90
2018-09-06T12:24:41.825Z,30.80
2018-09-06T12:25:14.903Z,30.80
2018-09-06T12:25:48.014Z,30.90
2018-09-06T12:26:21.073Z,30.90
2018-09-06T12:26:54.911Z,31.00
2018-09-06T12:27:27.986Z,31.00
2018-09-06T12:28:01.813Z,31.00
2018-09-06T12:28:35.072Z,30.90
2018-09-06T12:29:08.142Z,31.00
2018-09-06T12:29:41.223Z,31.00
2018-09-06T12:30:14.293Z,31.00
2018-09-06T12:30:47.352Z,30.90
2018-09-06T12:31:21.200Z,30.80
2018-09-06T12:31:54.290Z,30.80
2018-09-06T12:32:27.640Z,30.90
2018-09-06T12:33:00.897Z,30.90
2018-09-06T12:33:34.847Z,30.90
2018-09-06T12:34:07.808Z,30.90
2018-09-06T12:34:41.116Z,30.90
2018-09-06T12:35:14.952Z,30.90
2018-09-06T12:35:48.029Z,30.90
2018-09-06T12:36:21.099Z,30.90
2018-09-06T12:36:54.152Z,30.90
2018-09-06T12:37:27.199Z,31.00
2018-09-06T12:38:00.296Z,31.00
2018-09-06T12:38:33.382Z,31.00
2018-09-06T12:39:06.643Z,31.00
2018-09-06T12:39:40.699Z,31.10
2018-09-06T12:40:13.768Z,31.00
2018-09-06T12:40:46.820Z,31.10
2018-09-06T12:41:20.640Z,31.10
2018-09-06T12:41:53.913Z,31.10
2018-09-06T12:42:27.185Z,31.00
2018-09-06T12:43:00.258Z,31.00
2018-09-06T12:43:33.327Z,31.00
2018-09-06T12:44:06.400Z,31.00
2018-09-06T12:44:39.448Z,31.00
2018-09-06T12:45:12.532Z,31.00
2018-09-06T12:45:45.576Z,30.90
2018-09-06T12:46:19.401Z,30.90
2018-09-06T12:46:52.480Z,30.90
2018-09-06T12:47:25.546Z,30.90
2018-09-06T12:47:58.610Z,30.90
2018-09-06T12:48:31.690Z,30.80
2018-09-06T12:49:04.795Z,30.80
2018-09-06T12:49:37.929Z,30.80
2018-09-06T12:50:10.921Z,30.80
2018-09-06T12:50:44.015Z,30.80
2018-09-06T12:51:17.052Z,30.80
2018-09-06T12:51:50.881Z,30.90
2018-09-06T12:52:23.951Z,30.90
2018-09-06T12:52:57.008Z,30.90
2018-09-06T12:53:30.101Z,30.90
2018-09-06T12:54:03.176Z,30.90
2018-09-06T12:54:36.231Z,30.90
2018-09-06T12:55:09.317Z,30.90
2018-09-06T12:55:42.396Z,30.90
2018-09-06T12:56:15.460Z,30.90
2018-09-06T12:56:48.535Z,30.90
2018-09-06T12:57:21.604Z,30.90
2018-09-06T12:57:55.424Z,30.90
2018-09-06T12:58:28.508Z,30.90
2018-09-06T12:59:01.580Z,31.00
2018-09-06T12:59:34.617Z,31.00
2018-09-06T13:00:08.439Z,30.90
2018-09-06T13:00:41.500Z,31.00
2018-09-06T13:01:14.571Z,30.90
2018-09-06T13:01:48.384Z,30.70
2018-09-06T13:02:21.465Z,30.70
2018-09-06T13:02:54.516Z,30.60
2018-09-06T13:03:27.609Z,30.50
2018-09-06T13:04:00.688Z,30.50
2018-09-06T13:04:33.752Z,30.40
2018-09-06T13:05:06.827Z,30.40
2018-09-06T13:05:39.875Z,30.30
2018-09-06T13:06:13.707Z,30.20
2018-09-06T13:06:46.977Z,30.20
2018-09-06T13:07:20.027Z,30.20
2018-09-06T13:07:53.989Z,30.10
2018-09-06T13:08:27.892Z,30.10
2018-09-06T13:09:00.986Z,30.10
2018-09-06T13:09:34.072Z,30.10
2018-09-06T13:10:07.899Z,30.00
2018-09-06T13:10:40.962Z,30.10
2018-09-06T13:11:14.050Z,30.10
2018-09-06T13:11:47.129Z,30.10
2018-09-06T13:12:20.172Z,30.00
2018-09-06T13:12:54.011Z,29.90
2018-09-06T13:13:27.075Z,29.90
2018-09-06T13:14:01.674Z,29.90
2018-09-06T13:14:34.724Z,29.90
2018-09-06T13:15:08.558Z,29.80
2018-09-06T13:15:41.600Z,29.80
2018-09-06T13:16:14.648Z,29.70
2018-09-06T13:16:47.715Z,29.70
2018-09-06T13:17:20.785Z,29.70
2018-09-06T13:17:53.825Z,29.60
2018-09-06T13:18:26.890Z,29.60
2018-09-06T13:18:59.960Z,29.60
2018-09-06T13:19:33.035Z,29.60
2018-09-06T13:20:06.101Z,29.50
2018-09-06T13:20:39.908Z,29.40
2018-09-06T13:21:12.962Z,29.40
2018-09-06T13:21:46.017Z,29.30
2018-09-06T13:22:19.074Z,29.30
2018-09-06T13:22:52.148Z,29.40
2018-09-06T13:23:25.204Z,29.30
2018-09-06T13:23:58.269Z,29.20
2018-09-06T13:24:31.333Z,29.20
2018-09-06T13:25:04.385Z,29.20
2018-09-06T13:25:37.460Z,29.20
2018-09-06T13:26:11.272Z,29.20
2018-09-06T13:26:44.344Z,29.20
2018-09-06T13:27:19.074Z,29.20
2018-09-06T13:27:52.077Z,29.20
2018-09-06T13:28:25.121Z,29.10
2018-09-06T13:28:58.970Z,29.10
2018-09-06T13:29:32.009Z,29.10
2018-09-06T13:30:05.073Z,29.10
2018-09-06T13:30:38.149Z,29.10
2018-09-06T13:31:11.218Z,29.00
2018-09-06T13:31:44.294Z,29.00
2018-09-06T13:32:18.121Z,28.90
2018-09-06T13:32:51.187Z,28.80
2018-09-06T13:33:24.266Z,28.80
2018-09-06T13:33:57.345Z,28.80
2018-09-06T13:34:30.410Z,28.80
2018-09-06T13:35:03.468Z,28.80
2018-09-06T13:35:36.559Z,28.80
2018-09-06T13:36:09.591Z,28.80
2018-09-06T13:36:42.700Z,28.70
2018-09-06T13:37:15.757Z,28.70
2018-09-06T13:37:48.840Z,28.70
2018-09-06T13:38:21.884Z,28.60
2018-09-06T13:38:54.975Z,28.60
2018-09-06T13:39:28.052Z,28.60
2018-09-06T13:40:01.129Z,28.60
2018-09-06T13:40:40.133Z,28.60
2018-09-06T13:41:14.306Z,28.50
2018-09-06T13:41:47.392Z,28.40
2018-09-06T13:42:21.270Z,28.50
2018-09-06T13:42:54.390Z,28.50
2018-09-06T13:43:29.406Z,28.50
2018-09-06T13:44:02.478Z,28.40
2018-09-06T13:44:35.605Z,28.40
2018-09-06T13:45:08.721Z,28.40
2018-09-06T13:45:42.933Z,28.40
2018-09-06T13:46:16.816Z,28.30
2018-09-06T13:46:51.409Z,28.30
2018-09-06T13:49:26.453Z,28.30
2018-09-06T13:50:05.385Z,28.20
2018-09-06T13:50:45.107Z,28.20
2018-09-06T13:52:35.928Z,28.20
2018-09-06T13:53:09.060Z,28.20
2018-09-06T13:53:47.746Z,28.10
2018-09-06T13:54:38.024Z,28.10
2018-09-06T13:55:11.369Z,28.10
2018-09-06T13:55:51.005Z,28.10
2018-09-06T13:56:24.130Z,28.10
2018-09-06T13:56:57.313Z,28.10
2018-09-06T13:57:30.422Z,28.10
2018-09-06T13:58:05.758Z,28.10
2018-09-06T13:58:42.416Z,28.10
2018-09-06T13:59:20.902Z,28.00
2018-09-06T16:10:12.789Z,27.10
2018-09-06T16:10:45.827Z,27.10
2018-09-06T16:11:18.977Z,27.10
2018-09-06T16:11:51.953Z,27.10
2018-09-06T16:12:25.006Z,27.00
2018-09-06T16:12:58.034Z,27.10
2018-09-06T16:13:31.836Z,27.10
2018-09-06T16:14:04.872Z,27.10
2018-09-06T16:14:37.912Z,27.10
2018-09-06T16:15:11.717Z,27.00
2018-09-06T16:15:44.763Z,27.00
2018-09-06T16:16:17.810Z,27.10
2018-09-06T16:16:50.883Z,27.10
2018-09-06T16:17:24.691Z,27.00
2018-09-06T16:17:57.728Z,26.90
2018-09-06T16:18:31.523Z,26.90
2018-09-06T16:19:04.569Z,26.90
2018-09-06T16:19:37.613Z,26.90
2018-09-06T16:20:10.643Z,27.00
2018-09-06T16:20:43.691Z,27.00
2018-09-06T16:21:16.739Z,27.00
2018-09-06T16:21:49.772Z,27.00
2018-09-06T16:22:23.581Z,26.90
2018-09-06T16:22:56.632Z,26.90
2018-09-06T16:23:29.694Z,27.00
2018-09-06T16:24:02.715Z,27.00
2018-09-06T16:24:35.776Z,27.00
2018-09-06T16:25:08.784Z,27.00
2018-09-06T16:25:41.813Z,27.00
2018-09-06T16:26:14.867Z,27.00
2018-09-06T16:26:47.919Z,27.00
2018-09-06T16:27:20.955Z,27.00
2018-09-06T16:27:53.984Z,27.00
2018-09-06T16:28:27.032Z,27.00
2018-09-06T16:29:00.063Z,27.00
2018-09-06T16:29:33.271Z,27.00
2018-09-06T16:30:06.464Z,27.10
2018-09-06T16:30:39.482Z,27.00
2018-09-06T16:31:12.528Z,27.00
2018-09-06T16:31:46.341Z,26.90
2018-09-06T16:32:20.172Z,26.90
2018-09-06T16:32:53.199Z,26.90
2018-09-06T16:33:26.243Z,26.80
2018-09-06T16:33:59.289Z,26.90
2018-09-06T16:34:32.325Z,26.90
2018-09-06T16:35:05.373Z,27.00
2018-09-06T16:35:38.419Z,27.00
2018-09-06T16:36:11.470Z,26.90
2018-09-06T16:36:44.521Z,27.00
2018-09-06T16:37:18.335Z,27.00
2018-09-06T16:37:51.396Z,27.00
2018-09-06T16:38:24.409Z,27.00
2018-09-06T16:38:58.216Z,27.00
2018-09-06T16:39:31.247Z,26.90
2018-09-06T16:40:04.329Z,27.00
2018-09-06T16:40:37.360Z,27.00
2018-09-06T16:41:10.403Z,27.00
2018-09-06T16:41:43.487Z,27.00
2018-09-06T16:42:16.520Z,27.00
2018-09-06T16:42:49.553Z,27.00
2018-09-06T16:43:22.599Z,27.00
2018-09-06T16:43:55.635Z,27.00
